createdAt,value
2018-06-18T00:00:56.482Z,71.22
2018-06-18T00:03:25.391Z,70.99
2018-06-18T00:05:54.307Z,71.41
2018-06-18T00:08:23.259Z,71.42
2018-06-18T00:10:52.208Z,73.01
2018-06-18T00:13:21.092Z,73.27
2018-06-18T00:15:50.143Z,75.17
2018-06-18T00:18:19.223Z,75.84
2018-06-18T00:20:48.437Z,75.56
2018-06-18T00:23:17.378Z,76.75
2018-06-18T00:25:46.314Z,77.16
2018-06-18T00:28:15.146Z,78.18
2018-06-18T00:30:44.035Z,78.67
2018-06-18T00:33:12.883Z,79.26
2018-06-18T00:35:41.776Z,78.08
2018-06-18T00:38:11.863Z,78.99
2018-06-18T00:40:40.732Z,79.73
2018-06-18T00:43:09.594Z,80.36
2018-06-18T00:45:38.432Z,80.86
2018-06-18T00:48:07.408Z,81.02
2018-06-18T00:50:36.273Z,80.46
2018-06-18T00:53:05.195Z,80.92
2018-06-18T00:55:45.151Z,81.28
2018-06-18T00:58:14.081Z,81.82
2018-06-18T01:00:42.944Z,81.02
2018-06-18T01:03:11.922Z,81.41
2018-06-18T01:05:40.829Z,81.01
2018-06-18T01:27:41.086Z,80.54
2018-06-18T01:32:48.747Z,81.93
2018-06-18T01:35:17.612Z,81.59
2018-06-18T01:37:46.442Z,81.91
2018-06-18T01:40:15.330Z,82.19
2018-06-18T01:42:44.216Z,81.80
2018-06-18T01:45:13.081Z,81.65
2018-06-18T01:47:41.951Z,82.11
2018-06-18T01:50:10.840Z,82.15
2018-06-18T01:52:39.796Z,82.10
2018-06-18T01:55:08.763Z,82.24
2018-06-18T01:57:37.661Z,82.60
2018-06-18T02:00:06.537Z,82.34
2018-06-18T02:02:35.399Z,82.53
2018-06-18T02:05:04.376Z,82.23
2018-06-18T02:07:33.382Z,82.50
2018-06-18T02:10:02.316Z,82.89
2018-06-18T02:12:31.189Z,82.29
2018-06-18T02:15:00.082Z,81.94
2018-06-18T02:17:28.978Z,81.89
2018-06-18T02:19:57.883Z,82.00
2018-06-18T02:22:26.780Z,81.66
2018-06-18T02:24:56.136Z,81.71
2018-06-18T02:27:29.106Z,81.56
2018-06-18T02:30:03.109Z,81.54
2018-06-18T02:32:37.198Z,82.10
2018-06-18T02:35:11.186Z,82.22
2018-06-18T02:37:45.208Z,82.29
2018-06-18T02:40:19.209Z,82.27
2018-06-18T02:42:48.181Z,82.38
2018-06-18T02:45:17.066Z,83.13
2018-06-18T02:47:46.125Z,83.28
2018-06-18T02:50:15.213Z,82.97
2018-06-18T02:52:44.184Z,83.11
2018-06-18T02:55:13.271Z,82.38
2018-06-18T02:57:42.322Z,82.85
2018-06-18T03:00:11.253Z,82.61
2018-06-18T03:02:40.254Z,82.43
2018-06-18T03:05:09.213Z,82.37
2018-06-18T03:07:38.098Z,82.09
2018-06-18T03:10:07.064Z,82.25
2018-06-18T03:12:35.999Z,82.32
2018-06-18T03:15:06.669Z,82.43
2018-06-18T03:17:35.545Z,83.18
2018-06-18T03:20:09.657Z,82.82
2018-06-18T03:22:43.740Z,83.13
2018-06-18T03:25:17.711Z,82.79
2018-06-18T03:27:51.687Z,82.51
2018-06-18T03:30:20.490Z,82.55
2018-06-18T03:32:50.200Z,82.76
2018-06-18T03:35:19.009Z,82.58
2018-06-18T03:37:48.060Z,82.20
2018-06-18T03:40:16.927Z,82.06
2018-06-18T03:42:46.211Z,81.95
2018-06-18T03:45:19.018Z,81.88
2018-06-18T03:47:47.932Z,82.42
2018-06-18T03:50:16.890Z,81.68
2018-06-18T03:52:45.975Z,82.06
2018-06-18T03:55:18.154Z,82.35
2018-06-18T03:57:47.134Z,82.54
2018-06-18T04:00:16.054Z,82.10
2018-06-18T04:02:55.007Z,81.50
2018-06-18T04:05:29.066Z,81.67
2018-06-18T04:08:00.504Z,82.08
2018-06-18T04:10:37.953Z,82.56
2018-06-18T04:13:07.058Z,81.62
2018-06-18T04:15:35.902Z,81.51
2018-06-18T04:18:04.783Z,81.57
2018-06-18T04:20:37.048Z,81.64
2018-06-18T04:23:06.179Z,82.12
2018-06-18T04:25:35.030Z,82.39
2018-06-18T04:28:03.925Z,81.65
2018-06-18T04:30:33.094Z,81.96
2018-06-18T04:33:02.213Z,81.63
2018-06-18T04:35:31.166Z,82.66
2018-06-18T04:38:00.877Z,82.60
2018-06-18T04:40:30.037Z,82.33
2018-06-18T04:43:05.661Z,82.23
2018-06-18T04:45:40.860Z,82.25
2018-06-18T04:48:15.806Z,82.27
2018-06-18T04:50:50.294Z,81.96
2018-06-18T04:53:20.659Z,81.58
2018-06-18T04:55:49.820Z,80.61
2018-06-18T04:58:18.698Z,81.37
2018-06-18T05:00:54.973Z,81.66
2018-06-18T05:03:23.843Z,81.08
2018-06-18T05:05:52.729Z,81.38
2018-06-18T05:09:31.015Z,80.79
2018-06-18T05:12:00.828Z,80.30
2018-06-18T05:14:29.711Z,80.59
2018-06-18T05:16:58.646Z,79.98
2018-06-18T05:19:27.526Z,79.44
2018-06-18T05:21:56.474Z,79.68
2018-06-18T05:24:26.674Z,78.89
2018-06-18T05:26:57.028Z,77.90
2018-06-18T05:29:26.863Z,76.29
2018-06-18T05:31:55.773Z,76.18
2018-06-18T05:34:28.268Z,76.41
2018-06-18T05:36:59.537Z,75.36
2018-06-18T05:39:28.714Z,74.15
2018-06-18T05:41:57.606Z,73.12
2018-06-18T05:44:26.672Z,73.12
2018-06-18T05:46:56.357Z,74.08
2018-06-18T05:49:27.249Z,74.60
2018-06-18T05:51:58.196Z,75.45
2018-06-18T05:54:27.123Z,75.92
2018-06-18T05:56:57.090Z,76.42
2018-06-18T05:59:27.016Z,76.50
2018-06-18T06:01:56.599Z,76.74
2018-06-18T06:04:25.463Z,75.23
2018-06-18T06:06:54.871Z,74.49
2018-06-18T06:09:23.838Z,74.67
2018-06-18T06:11:53.266Z,74.62
2018-06-18T06:14:22.112Z,74.35
2018-06-18T06:16:51.230Z,72.76
2018-06-18T06:19:20.541Z,71.87
2018-06-18T06:21:49.462Z,71.03
2018-06-18T06:24:19.240Z,70.81
2018-06-18T06:26:48.077Z,68.40
2018-06-18T06:29:16.930Z,64.83
2018-06-18T06:31:45.881Z,58.62
2018-06-18T06:34:14.721Z,51.21
2018-06-18T06:36:43.570Z,49.74
2018-06-18T06:39:12.453Z,48.70
2018-06-18T06:41:44.042Z,49.19
2018-06-18T06:44:12.925Z,50.67
2018-06-18T06:46:41.833Z,53.48
2018-06-18T06:49:10.651Z,54.93
2018-06-18T06:51:39.538Z,53.07
2018-06-18T06:54:08.432Z,50.95
2018-06-18T06:56:37.289Z,51.52
2018-06-18T06:59:06.237Z,51.48
2018-06-18T07:01:35.118Z,51.42
2018-06-18T07:04:04.030Z,51.01
2018-06-18T07:06:32.880Z,54.61
2018-06-18T07:09:01.794Z,56.24
2018-06-18T07:11:30.663Z,58.47
2018-06-18T07:13:59.570Z,58.33
2018-06-18T07:16:28.538Z,57.78
2018-06-18T07:18:57.432Z,60.07
2018-06-18T07:21:26.294Z,58.84
2018-06-18T07:23:55.724Z,59.62
2018-06-18T07:26:24.669Z,59.84
2018-06-18T07:28:53.732Z,58.66
2018-06-18T07:31:22.616Z,57.49
2018-06-18T07:33:51.507Z,58.33
2018-06-18T07:36:20.381Z,59.76
2018-06-18T07:38:49.243Z,57.33
2018-06-18T07:41:18.120Z,57.06
2018-06-18T07:43:47.003Z,57.93
2018-06-18T07:46:15.907Z,56.66
2018-06-18T07:48:44.782Z,52.68
2018-06-18T07:51:13.632Z,51.26
2018-06-18T07:53:42.515Z,46.64
2018-06-18T07:56:11.421Z,47.70
2018-06-18T07:58:40.304Z,48.21
2018-06-18T08:01:09.211Z,47.79
2018-06-18T08:03:38.131Z,46.60
2018-06-18T08:06:07.016Z,46.35
2018-06-18T08:08:35.913Z,46.43
2018-06-18T08:11:04.809Z,43.45
2018-06-18T08:13:33.654Z,41.55
2018-06-18T08:16:02.496Z,40.07
2018-06-18T08:18:31.974Z,40.80
2018-06-18T08:21:00.801Z,41.11
2018-06-18T08:23:29.717Z,43.68
2018-06-18T08:25:58.519Z,46.33
2018-06-18T08:28:27.412Z,43.35
2018-06-18T08:30:56.277Z,39.80
2018-06-18T08:33:25.148Z,39.80
2018-06-18T08:35:54.115Z,42.20
2018-06-18T08:38:22.964Z,44.09
2018-06-18T08:40:51.850Z,44.48
2018-06-18T08:43:20.736Z,44.91
2018-06-18T08:45:49.756Z,44.91
2018-06-18T08:48:23.849Z,45.52
2018-06-18T08:50:57.827Z,46.88
2018-06-18T08:53:31.865Z,46.84
2018-06-18T08:57:09.789Z,45.95
2018-06-18T08:59:43.924Z,45.15
2018-06-18T09:02:12.834Z,45.57
2018-06-18T09:04:49.670Z,46.02
2018-06-18T09:07:22.590Z,47.46
2018-06-18T09:09:51.454Z,49.83
2018-06-18T09:12:21.180Z,51.46
2018-06-18T09:14:50.011Z,53.92
2018-06-18T09:17:18.894Z,52.21
2018-06-18T09:19:47.754Z,51.33
2018-06-18T09:22:16.559Z,49.85
2018-06-18T09:24:45.409Z,49.64
2018-06-18T09:27:15.359Z,49.72
2018-06-18T09:29:49.433Z,51.15
2018-06-18T09:32:18.317Z,50.96
2018-06-18T09:34:47.186Z,52.65
2018-06-18T09:37:16.037Z,53.61
2018-06-18T09:39:44.908Z,54.40
2018-06-18T09:42:13.719Z,55.01
2018-06-18T09:44:42.567Z,56.34
2018-06-18T09:47:11.394Z,54.17
2018-06-18T09:49:45.503Z,53.58
2018-06-18T09:52:23.016Z,55.04
2018-06-18T09:54:57.135Z,54.72
2018-06-18T09:57:31.245Z,54.02
2018-06-18T10:00:04.888Z,54.94
2018-06-18T10:02:33.750Z,55.90
2018-06-18T10:05:02.574Z,56.63
2018-06-18T10:07:31.423Z,57.18
2018-06-18T10:10:00.324Z,57.06
2018-06-18T10:12:29.195Z,55.83
2018-06-18T10:14:58.048Z,57.75
2018-06-18T10:17:26.904Z,59.22
2018-06-18T10:19:55.829Z,58.99
2018-06-18T10:22:24.650Z,58.46
2018-06-18T10:24:53.680Z,57.71
2018-06-18T10:27:22.601Z,57.04
2018-06-18T10:29:51.496Z,56.73
2018-06-18T10:32:25.436Z,58.96
2018-06-18T10:34:59.507Z,56.11
2018-06-18T10:37:33.488Z,56.53
2018-06-18T10:40:07.542Z,54.93
2018-06-18T10:42:41.577Z,53.29
2018-06-18T10:45:10.415Z,52.03
2018-06-18T10:47:39.273Z,52.54
2018-06-18T10:50:08.124Z,51.05
2018-06-18T10:52:36.933Z,52.45
2018-06-18T10:55:05.858Z,52.77
2018-06-18T10:57:34.858Z,54.55
2018-06-18T11:00:04.313Z,55.65
2018-06-18T11:02:33.168Z,57.26
2018-06-18T11:05:02.135Z,57.52
2018-06-18T11:07:31.333Z,58.02
2018-06-18T11:10:00.182Z,57.24
2018-06-18T11:12:29.011Z,58.08
2018-06-18T11:14:57.927Z,58.86
2018-06-18T11:17:32.067Z,58.67
2018-06-18T11:20:06.050Z,58.80
2018-06-18T11:22:39.915Z,58.81
2018-06-18T11:25:14.032Z,59.51
2018-06-18T11:27:42.914Z,60.17
2018-06-18T11:30:11.825Z,60.42
2018-06-18T11:32:40.704Z,61.28
2018-06-18T11:35:09.537Z,62.42
2018-06-18T11:37:38.394Z,62.45
2018-06-18T11:40:07.342Z,63.88
2018-06-18T11:42:36.158Z,66.65
2018-06-18T11:45:05.069Z,67.66
2018-06-18T11:47:33.994Z,67.61
2018-06-18T11:50:02.825Z,66.26
2018-06-18T11:52:31.856Z,67.46
2018-06-18T11:55:00.775Z,68.81
2018-06-18T11:57:29.613Z,69.04
2018-06-18T12:00:03.658Z,68.48
2018-06-18T12:02:37.794Z,67.14
2018-06-18T12:05:11.918Z,65.88
2018-06-18T12:07:45.883Z,64.07
2018-06-18T12:10:14.761Z,63.83
2018-06-18T12:12:43.589Z,62.94
2018-06-18T12:15:12.476Z,63.41
2018-06-18T12:17:41.414Z,61.73
2018-06-18T12:20:10.285Z,62.65
2018-06-18T12:22:39.152Z,63.16
2018-06-18T12:25:08.033Z,62.51
2018-06-18T12:27:37.004Z,61.73
2018-06-18T12:30:05.942Z,63.87
2018-06-18T12:32:34.805Z,64.04
2018-06-18T12:35:03.641Z,63.64
2018-06-18T12:37:32.468Z,63.83
2018-06-18T12:40:01.307Z,64.10
2018-06-18T12:42:30.125Z,63.65
2018-06-18T12:45:04.072Z,63.97
2018-06-18T12:47:38.055Z,64.17
2018-06-18T12:50:12.136Z,64.92
2018-06-18T12:52:46.180Z,65.23
2018-06-18T12:55:20.278Z,66.11
2018-06-18T12:57:49.221Z,66.15
2018-06-18T13:00:18.102Z,65.94
2018-06-18T13:02:52.892Z,65.63
2018-06-18T13:05:21.813Z,64.90
2018-06-18T13:07:50.705Z,64.50
2018-06-18T13:10:19.564Z,64.75
2018-06-18T13:12:48.461Z,64.58
2018-06-18T13:15:17.307Z,63.95
2018-06-18T13:17:46.132Z,63.84
2018-06-18T13:20:15.116Z,64.49
2018-06-18T13:22:43.991Z,64.97
2018-06-18T13:25:12.832Z,64.49
2018-06-18T13:27:46.735Z,64.96
2018-06-18T13:30:15.645Z,64.48
2018-06-18T13:32:44.583Z,64.28
2018-06-18T13:35:13.427Z,63.18
2018-06-18T13:37:47.379Z,63.40
2018-06-18T13:40:21.454Z,64.07
2018-06-18T13:42:55.581Z,63.51
2018-06-18T13:45:29.616Z,64.06
2018-06-18T13:48:03.579Z,64.35
2018-06-18T13:50:32.474Z,64.07
2018-06-18T13:53:01.315Z,64.41
2018-06-18T13:55:30.192Z,64.30
2018-06-18T13:57:59.099Z,64.69
2018-06-18T14:00:27.959Z,64.00
2018-06-18T14:02:56.843Z,63.50
2018-06-18T14:05:25.675Z,63.68
2018-06-18T14:07:54.503Z,61.58
2018-06-18T14:10:23.387Z,61.47
2018-06-18T14:12:52.196Z,60.39
2018-06-18T14:15:21.041Z,60.57
2018-06-18T14:17:49.876Z,59.76
2018-06-18T14:20:23.392Z,60.62
2018-06-18T14:22:52.634Z,60.11
2018-06-18T14:25:21.522Z,60.20
2018-06-18T14:27:50.359Z,59.81
2018-06-18T14:30:24.509Z,60.59
2018-06-18T14:32:58.551Z,59.19
2018-06-18T14:35:32.566Z,60.58
2018-06-18T14:38:06.647Z,59.71
2018-06-18T14:40:35.500Z,61.03
2018-06-18T14:43:04.370Z,61.63
2018-06-18T14:45:33.299Z,60.05
2018-06-18T14:48:02.098Z,60.34
2018-06-18T14:50:30.955Z,61.36
2018-06-18T14:52:59.864Z,61.89
2018-06-18T14:55:28.773Z,61.26
2018-06-18T14:57:57.770Z,60.53
2018-06-18T15:00:29.424Z,62.10
2018-06-18T15:02:58.414Z,60.98
2018-06-18T15:05:30.170Z,62.78
2018-06-18T15:07:59.017Z,62.77
2018-06-18T15:10:33.007Z,63.12
2018-06-18T15:13:02.104Z,64.19
2018-06-18T15:15:36.101Z,62.80
2018-06-18T15:18:05.087Z,62.47
2018-06-18T15:20:33.926Z,62.22
2018-06-18T15:23:04.417Z,61.35
2018-06-18T15:25:39.487Z,61.12
2018-06-18T15:28:08.735Z,61.49
2018-06-18T15:30:37.529Z,61.37
2018-06-18T15:33:06.315Z,61.46
2018-06-18T15:35:35.184Z,61.08
2018-06-18T15:38:04.011Z,61.98
2018-06-18T15:40:32.869Z,61.24
2018-06-18T15:43:01.712Z,60.94
2018-06-18T15:45:30.708Z,59.48
2018-06-18T15:47:59.555Z,60.27
2018-06-18T15:50:28.430Z,59.25
2018-06-18T15:52:57.414Z,59.38
2018-06-18T15:55:26.576Z,59.65
2018-06-18T15:57:55.592Z,59.31
2018-06-18T16:00:32.432Z,59.36
2018-06-18T16:03:04.783Z,59.93
2018-06-18T16:05:33.655Z,59.62
2018-06-18T16:08:02.484Z,59.33
2018-06-18T16:10:31.373Z,59.00
2018-06-18T16:13:00.268Z,58.28
2018-06-18T16:15:29.285Z,58.14
2018-06-18T16:17:58.217Z,59.03
2018-06-18T16:20:27.105Z,59.10
2018-06-18T16:22:57.707Z,59.17
2018-06-18T16:25:26.692Z,58.74
2018-06-18T16:27:55.587Z,58.12
2018-06-18T16:30:24.461Z,58.28
2018-06-18T16:32:53.345Z,56.62
2018-06-18T16:35:25.747Z,57.96
2018-06-18T16:37:54.624Z,58.39
2018-06-18T16:40:23.465Z,58.45
2018-06-18T16:42:52.376Z,59.17
2018-06-18T16:45:21.337Z,57.97
2018-06-18T16:47:50.278Z,59.10
2018-06-18T16:50:19.169Z,58.07
2018-06-18T16:52:48.080Z,57.94
2018-06-18T16:55:19.104Z,58.57
2018-06-18T16:57:48.135Z,58.69
2018-06-18T17:00:17.084Z,58.08
2018-06-18T17:02:46.343Z,58.82
2018-06-18T17:05:17.629Z,57.52
2018-06-18T17:07:47.017Z,58.78
2018-06-18T17:10:16.633Z,58.33
2018-06-18T17:12:46.781Z,59.09
2018-06-18T17:15:15.672Z,58.79
2018-06-18T17:17:45.110Z,59.36
2018-06-18T17:20:14.040Z,58.32
2018-06-18T17:22:42.940Z,59.27
2018-06-18T17:25:11.844Z,60.05
2018-06-18T17:27:40.738Z,59.83
2018-06-18T17:30:09.661Z,60.12
2018-06-18T17:32:38.634Z,60.00
2018-06-18T17:35:08.659Z,60.19
2018-06-18T17:37:37.613Z,60.84
2018-06-18T17:40:06.575Z,60.01
2018-06-18T17:42:35.816Z,60.90
2018-06-18T17:45:04.779Z,61.43
2018-06-18T17:47:34.055Z,61.18
2018-06-18T17:50:02.976Z,61.53
2018-06-18T17:52:33.076Z,61.23
2018-06-18T17:55:01.979Z,61.43
2018-06-18T17:57:31.840Z,61.28
2018-06-18T18:00:01.710Z,61.53
2018-06-18T18:02:30.639Z,62.49
2018-06-18T18:05:00.951Z,62.34
2018-06-18T18:07:30.134Z,62.83
2018-06-18T18:09:59.576Z,62.36
2018-06-18T18:12:28.500Z,62.53
2018-06-18T18:14:57.354Z,62.29
2018-06-18T18:17:26.218Z,63.28
2018-06-18T18:19:55.073Z,63.14
2018-06-18T18:22:23.964Z,63.07
2018-06-18T18:24:54.384Z,62.69
2018-06-18T18:27:23.381Z,63.26
2018-06-18T18:29:52.532Z,63.35
2018-06-18T18:32:22.288Z,63.11
2018-06-18T18:34:51.172Z,63.73
2018-06-18T18:37:20.153Z,63.13
2018-06-18T18:39:49.178Z,63.48
2018-06-18T18:42:18.125Z,63.59
2018-06-18T18:44:47.045Z,64.31
2018-06-18T18:47:15.969Z,64.45
2018-06-18T18:49:44.874Z,64.54
2018-06-18T18:52:13.777Z,65.29
2018-06-18T18:55:59.278Z,67.91
2018-06-18T18:59:35.769Z,75.50
2018-06-18T19:02:04.735Z,79.13
2018-06-18T19:04:41.781Z,79.20
2018-06-18T19:07:10.850Z,80.55
2018-06-18T19:09:47.588Z,81.32
2018-06-18T19:12:16.511Z,80.94
2018-06-18T19:14:48.123Z,82.49
2018-06-18T19:17:17.052Z,82.58
2018-06-18T19:20:01.594Z,82.54
2018-06-18T19:22:30.849Z,83.22
2018-06-18T19:25:00.082Z,82.26
2018-06-18T19:27:28.987Z,83.33
2018-06-18T19:29:57.925Z,82.98
2018-06-18T19:32:27.901Z,83.76
2018-06-18T19:34:56.863Z,84.46
2018-06-18T19:37:25.884Z,83.89
2018-06-18T19:39:54.725Z,84.29
2018-06-18T19:42:23.579Z,83.80
2018-06-18T19:44:52.473Z,84.07
2018-06-18T19:47:29.173Z,84.26
2018-06-18T19:49:58.059Z,84.67
2018-06-18T19:52:27.016Z,84.60
2018-06-18T19:55:00.046Z,84.77
2018-06-18T19:57:28.879Z,85.34
2018-06-18T19:59:57.736Z,85.61
2018-06-18T20:02:26.600Z,84.69
2018-06-18T20:04:55.453Z,85.25
2018-06-18T20:07:25.530Z,85.14
2018-06-18T20:09:54.373Z,84.92
2018-06-18T20:12:23.219Z,85.41
2018-06-18T20:14:52.090Z,85.01
2018-06-18T20:17:20.920Z,85.16
2018-06-18T20:19:49.810Z,84.94
2018-06-18T20:22:18.703Z,85.28
2018-06-18T20:24:49.037Z,85.33
2018-06-18T20:27:17.898Z,85.62
2018-06-18T20:29:46.823Z,85.67
2018-06-18T20:32:15.696Z,85.38
2018-06-18T20:34:44.940Z,85.16
2018-06-18T20:37:14.044Z,85.43
2018-06-18T20:39:42.990Z,85.27
2018-06-18T20:42:11.836Z,85.32
2018-06-18T20:44:40.703Z,85.42
2018-06-18T20:47:09.630Z,85.93
2018-06-18T20:49:38.519Z,85.43
2018-06-18T20:52:07.387Z,85.41
2018-06-18T20:54:36.268Z,85.23
2018-06-18T20:57:05.180Z,85.21
2018-06-18T20:59:34.084Z,86.01
2018-06-18T21:02:02.922Z,85.88
2018-06-18T21:04:32.042Z,85.59
2018-06-18T21:07:01.074Z,85.81
2018-06-18T21:09:30.005Z,85.74
2018-06-18T21:11:58.897Z,86.10
2018-06-18T21:14:27.783Z,85.95
2018-06-18T21:16:57.516Z,85.99
2018-06-18T21:19:28.957Z,86.33
2018-06-18T21:21:58.932Z,86.32
2018-06-18T21:24:28.550Z,86.32
2018-06-18T21:26:57.934Z,86.42
2018-06-18T21:29:27.772Z,86.29
2018-06-18T21:31:57.703Z,85.88
2018-06-18T21:34:27.468Z,85.53
2018-06-18T21:36:57.355Z,85.47
2018-06-18T21:39:27.586Z,85.88
2018-06-18T21:41:57.189Z,85.58
2018-06-18T21:44:29.973Z,85.34
2018-06-18T21:46:58.839Z,85.97
2018-06-18T21:49:27.768Z,85.96
2018-06-18T21:51:56.724Z,85.93
2018-06-18T21:54:25.639Z,85.83
2018-06-18T21:56:54.672Z,85.88
2018-06-18T21:59:23.566Z,85.56
2018-06-18T22:01:53.341Z,86.10
2018-06-18T22:04:22.235Z,85.76
2018-06-18T22:06:51.170Z,85.95
2018-06-18T22:09:21.654Z,85.60
2018-06-18T22:11:52.616Z,85.78
2018-06-18T22:14:21.757Z,85.87
2018-06-18T22:16:50.774Z,86.18
2018-06-18T22:19:19.601Z,86.05
2018-06-18T22:21:48.917Z,86.16
2018-06-18T22:24:17.803Z,86.18
2018-06-18T22:26:46.744Z,86.34
2018-06-18T22:29:16.331Z,86.05
2018-06-18T22:31:45.315Z,86.07
2018-06-18T22:34:14.295Z,86.19
2018-06-18T22:36:43.225Z,86.36
2018-06-18T22:39:13.292Z,85.91
2018-06-18T22:41:42.219Z,85.85
2018-06-18T22:44:11.535Z,86.00
2018-06-18T22:46:40.477Z,86.10
2018-06-18T22:49:09.455Z,86.11
2018-06-18T22:51:38.405Z,86.59
2018-06-18T22:54:07.305Z,85.83
2018-06-18T22:56:36.225Z,85.55
2018-06-18T22:59:05.304Z,85.91
2018-06-18T23:01:34.376Z,85.83
2018-06-18T23:04:03.307Z,85.92
2018-06-18T23:06:32.308Z,85.89
2018-06-18T23:09:06.477Z,85.77
2018-06-18T23:11:35.601Z,84.90
2018-06-18T23:14:06.198Z,85.79
2018-06-18T23:16:35.191Z,86.04
2018-06-18T23:19:04.153Z,85.69
2018-06-18T23:21:33.166Z,85.38
2018-06-18T23:24:02.110Z,85.60
2018-06-18T23:26:31.065Z,85.45
2018-06-18T23:29:03.214Z,85.25
2018-06-18T23:31:32.173Z,85.96
2018-06-18T23:34:01.172Z,85.67
2018-06-18T23:36:30.117Z,85.76
2018-06-18T23:38:59.040Z,85.83
2018-06-18T23:41:29.529Z,85.77
2018-06-18T23:43:58.403Z,86.04
2018-06-18T23:46:27.366Z,85.69
2018-06-18T23:48:56.287Z,86.13
2018-06-18T23:51:25.229Z,86.07
2018-06-18T23:53:54.160Z,86.15
2018-06-18T23:56:23.091Z,86.60
2018-06-18T23:58:52.066Z,86.11
